createdAt,value
2022-10-04T00:01:09.420Z,1.67
2022-10-04T00:03:42.624Z,1.15
2022-10-04T00:06:18.199Z,1.70
2022-10-04T00:08:58.872Z,1.55
2022-10-04T00:11:33.452Z,1.48
2022-10-04T00:14:05.188Z,1.30
2022-10-04T00:16:34.124Z,1.52
2022-10-04T00:19:23.248Z,1.50
2022-10-04T00:21:56.377Z,1.83
2022-10-04T00:24:24.423Z,1.58
2022-10-04T00:26:51.207Z,1.42
2022-10-04T00:29:26.990Z,1.48
2022-10-04T00:32:12.360Z,1.80
2022-10-04T00:34:47.411Z,1.50
2022-10-04T00:39:44.835Z,1.02
2022-10-04T00:42:20.680Z,1.80
2022-10-04T00:45:00.153Z,1.52
2022-10-04T00:47:44.683Z,1.23
2022-10-04T00:50:33.159Z,1.50
2022-10-04T00:53:00.707Z,1.48
2022-10-04T00:55:41.827Z,1.30
2022-10-04T00:58:15.621Z,1.52
2022-10-04T01:00:42.748Z,1.83
2022-10-04T01:03:12.111Z,1.55
2022-10-04T01:05:47.308Z,1.33
2022-10-04T01:08:22.889Z,1.67
2022-10-04T01:10:52.638Z,1.90
2022-10-04T01:13:20.539Z,1.27
2022-10-04T01:15:55.348Z,1.20
2022-10-04T01:18:22.411Z,1.45
2022-10-04T01:21:04.438Z,1.30
2022-10-04T01:23:45.046Z,1.50
2022-10-04T01:26:29.270Z,1.50
2022-10-04T01:29:05.474Z,1.50
2022-10-04T01:31:33.466Z,1.75
2022-10-04T01:34:01.242Z,1.63
2022-10-04T01:36:28.338Z,1.35
2022-10-04T01:38:55.235Z,1.90
2022-10-04T01:41:25.606Z,1.70
2022-10-04T01:43:53.270Z,1.58
2022-10-04T01:46:24.415Z,2.53
2022-10-04T01:48:51.843Z,1.45
2022-10-04T01:51:30.323Z,1.38
2022-10-04T01:54:04.283Z,2.10
2022-10-04T01:56:39.160Z,1.55
2022-10-04T01:59:06.688Z,1.63
2022-10-04T02:01:48.204Z,1.90
2022-10-04T02:04:23.737Z,2.00
2022-10-04T02:09:26.735Z,1.90
2022-10-04T02:11:54.163Z,1.70
2022-10-04T02:14:23.326Z,1.50
2022-10-04T02:16:52.266Z,1.75
2022-10-04T02:19:19.540Z,1.52
2022-10-04T02:21:47.144Z,1.50
2022-10-04T02:24:14.117Z,1.75
2022-10-04T02:26:40.870Z,1.50
2022-10-04T02:29:09.699Z,1.67
2022-10-04T02:31:56.237Z,1.40
2022-10-04T02:34:23.005Z,1.45
2022-10-04T02:36:51.768Z,1.60
2022-10-04T02:39:24.765Z,1.95
2022-10-04T02:41:57.956Z,1.30
2022-10-04T02:44:52.917Z,1.70
2022-10-04T02:47:21.237Z,1.77
2022-10-04T02:49:50.020Z,1.58
2022-10-04T02:52:29.220Z,1.13
2022-10-04T02:55:23.256Z,1.98
2022-10-04T02:57:52.379Z,1.73
2022-10-04T03:00:24.765Z,1.65
2022-10-04T03:03:27.741Z,1.48
2022-10-04T03:05:57.527Z,1.80
2022-10-04T03:08:24.845Z,1.70
2022-10-04T03:10:51.880Z,1.55
2022-10-04T03:13:19.019Z,2.33
2022-10-04T03:15:46.385Z,1.73
2022-10-04T03:18:14.403Z,1.55
2022-10-04T03:20:41.414Z,1.20
2022-10-04T03:23:08.393Z,2.15
2022-10-04T03:25:43.005Z,1.45
2022-10-04T03:28:10.133Z,1.38
2022-10-04T03:30:36.967Z,1.92
2022-10-04T03:33:04.176Z,1.30
2022-10-04T03:35:35.757Z,1.95
2022-10-04T03:38:05.350Z,1.70
2022-10-04T03:40:32.586Z,1.60
2022-10-04T03:42:59.695Z,1.77
2022-10-04T03:45:27.785Z,1.80
2022-10-04T03:47:55.042Z,1.17
2022-10-04T03:50:24.824Z,1.92
2022-10-04T03:52:54.732Z,1.35
2022-10-04T03:55:23.771Z,1.50
2022-10-04T03:57:52.073Z,1.65
2022-10-04T04:00:18.963Z,1.17
2022-10-04T04:02:50.251Z,1.63
2022-10-04T04:05:24.361Z,1.20
2022-10-04T04:08:12.388Z,1.77
2022-10-04T04:10:42.609Z,1.48
2022-10-04T04:13:28.538Z,1.40
2022-10-04T04:18:23.750Z,1.60
2022-10-04T04:20:54.446Z,1.30
2022-10-04T04:23:27.716Z,1.40
2022-10-04T04:25:56.467Z,1.08
2022-10-04T04:28:27.453Z,1.70
2022-10-04T04:31:00.415Z,1.55
2022-10-04T04:33:31.520Z,1.67
2022-10-04T04:36:06.063Z,1.55
2022-10-04T04:38:33.280Z,1.58
2022-10-04T04:41:08.563Z,1.70
2022-10-04T04:43:35.577Z,1.20
2022-10-04T04:46:25.963Z,1.45
2022-10-04T04:48:50.582Z,2.63
2022-10-04T04:51:24.173Z,1.60
2022-10-04T04:53:51.434Z,1.83
2022-10-04T04:56:19.954Z,1.35
2022-10-04T04:58:47.459Z,1.73
2022-10-04T05:01:28.889Z,1.33
2022-10-04T05:04:13.642Z,1.73
2022-10-04T05:06:45.030Z,1.20
2022-10-04T05:09:44.238Z,1.40
2022-10-04T05:12:11.368Z,1.58
2022-10-04T05:14:38.652Z,1.40
2022-10-04T05:17:05.417Z,1.45
2022-10-04T05:19:34.329Z,1.90
2022-10-04T05:22:02.759Z,1.58
2022-10-04T05:24:40.674Z,1.42
2022-10-04T05:27:29.389Z,1.23
2022-10-04T05:29:56.436Z,1.77
2022-10-04T05:32:28.947Z,1.92
2022-10-04T05:34:55.722Z,1.60
2022-10-04T05:37:37.843Z,2.33
2022-10-04T05:40:13.502Z,1.63
2022-10-04T05:42:45.402Z,1.20
2022-10-04T05:45:23.479Z,1.30
2022-10-04T05:47:51.877Z,1.55
2022-10-04T05:50:20.939Z,1.25
2022-10-04T05:52:50.212Z,1.60
2022-10-04T05:55:53.679Z,1.25
2022-10-04T05:58:48.432Z,1.50
2022-10-04T06:01:30.276Z,1.35
2022-10-04T06:04:22.274Z,1.10
2022-10-04T06:07:43.746Z,1.25
2022-10-04T06:10:26.045Z,1.27
2022-10-04T06:13:00.012Z,1.67
2022-10-04T06:16:03.968Z,1.38
2022-10-04T06:18:44.288Z,1.60
2022-10-04T06:21:21.489Z,1.45
2022-10-04T06:23:57.013Z,1.55
2022-10-04T06:29:06.331Z,1.70
2022-10-04T06:31:46.922Z,1.52
2022-10-04T06:34:24.051Z,1.60
2022-10-04T06:37:11.107Z,1.80
2022-10-04T06:39:59.765Z,1.88
2022-10-04T06:42:55.627Z,1.77
2022-10-04T06:46:00.420Z,1.70
2022-10-04T06:48:41.787Z,2.00
2022-10-04T06:51:24.255Z,2.25
2022-10-04T06:54:34.740Z,1.60
2022-10-04T06:57:20.078Z,1.92
2022-10-04T06:59:53.166Z,1.98
2022-10-04T07:02:32.162Z,1.50
2022-10-04T07:05:08.573Z,1.98
2022-10-04T07:07:37.978Z,2.03
2022-10-04T07:10:19.998Z,2.00
2022-10-04T07:13:11.811Z,2.10
2022-10-04T07:15:55.623Z,2.17
2022-10-04T07:18:29.331Z,2.88
2022-10-04T07:21:21.138Z,2.03
2022-10-04T07:23:51.452Z,2.10
2022-10-04T07:26:27.220Z,2.05
2022-10-04T07:29:14.858Z,2.50
2022-10-04T07:31:42.233Z,2.55
2022-10-04T07:34:22.775Z,2.15
2022-10-04T07:36:57.007Z,2.60
2022-10-04T07:39:32.301Z,2.97
2022-10-04T07:42:06.305Z,1.98
2022-10-04T07:44:39.734Z,2.50
2022-10-04T07:47:14.663Z,1.92
2022-10-04T07:49:41.768Z,2.75
2022-10-04T07:52:33.376Z,2.30
2022-10-04T07:55:21.779Z,1.70
2022-10-04T07:58:07.345Z,2.05
2022-10-04T08:00:51.218Z,2.63
2022-10-04T08:03:21.201Z,1.75
2022-10-04T08:05:53.911Z,2.25
2022-10-04T08:08:37.852Z,2.20
2022-10-04T08:11:43.516Z,2.15
2022-10-04T08:14:24.492Z,3.05
2022-10-04T08:17:00.799Z,2.00
2022-10-04T08:19:33.366Z,2.13
2022-10-04T08:22:02.710Z,1.85
2022-10-04T08:25:04.828Z,1.85
2022-10-04T08:28:17.827Z,1.42
2022-10-04T08:31:09.397Z,1.70
2022-10-04T08:34:12.168Z,1.52
2022-10-04T08:36:42.223Z,1.70
2022-10-04T08:39:29.035Z,1.70
2022-10-04T08:42:17.577Z,2.25
2022-10-04T08:45:02.203Z,2.08
2022-10-04T08:47:49.834Z,1.30
2022-10-04T08:50:30.332Z,1.73
2022-10-04T08:53:29.351Z,1.60
2022-10-04T08:56:20.167Z,1.70
2022-10-04T08:59:42.598Z,1.40
2022-10-04T09:02:28.765Z,1.10
2022-10-04T09:04:59.370Z,1.58
2022-10-04T09:07:50.794Z,1.90
2022-10-04T09:10:29.629Z,1.70
2022-10-04T09:12:56.713Z,1.98
2022-10-04T09:15:51.674Z,1.42
2022-10-04T09:18:31.170Z,1.35
2022-10-04T09:21:03.560Z,1.20
2022-10-04T09:23:31.096Z,1.35
2022-10-04T09:26:18.649Z,1.27
2022-10-04T09:29:16.179Z,1.30
2022-10-04T09:31:48.768Z,1.67
2022-10-04T09:34:22.219Z,1.38
2022-10-04T09:36:52.649Z,1.52
2022-10-04T09:39:44.552Z,1.02
2022-10-04T09:42:42.515Z,1.27
2022-10-04T09:45:27.587Z,1.65
2022-10-04T09:48:16.337Z,0.95
2022-10-04T09:51:14.396Z,1.00
2022-10-04T09:53:52.908Z,1.40
2022-10-04T09:56:38.231Z,1.23
2022-10-04T09:59:18.608Z,1.35
2022-10-04T10:01:55.387Z,1.30
2022-10-04T10:04:52.321Z,0.75
2022-10-04T10:07:34.685Z,1.00
2022-10-04T10:10:40.900Z,1.48
2022-10-04T10:16:40.973Z,1.02
2022-10-04T10:19:46.789Z,0.80
2022-10-04T10:22:38.270Z,1.10
2022-10-04T10:25:29.866Z,1.25
2022-10-04T10:28:34.328Z,1.25
2022-10-04T10:31:10.640Z,1.15
2022-10-04T10:33:59.201Z,2.90
2022-10-04T10:36:39.128Z,4.00
2022-10-04T10:39:24.329Z,4.00
2022-10-04T10:45:22.198Z,3.40
2022-10-04T10:48:10.767Z,2.80
2022-10-04T10:50:58.954Z,5.43
2022-10-04T10:53:48.220Z,13.50
2022-10-04T10:56:20.696Z,9.75
2022-10-04T10:59:01.784Z,7.45
2022-10-04T11:02:01.074Z,6.05
2022-10-04T11:05:19.582Z,5.57
2022-10-04T11:08:14.117Z,4.80
2022-10-04T11:10:55.993Z,4.10
2022-10-04T11:14:01.359Z,3.42
2022-10-04T11:16:42.020Z,3.83
2022-10-04T11:19:43.399Z,3.70
2022-10-04T11:22:19.745Z,3.28
2022-10-04T11:25:08.446Z,3.03
2022-10-04T11:27:57.431Z,3.15
2022-10-04T11:30:30.193Z,2.90
2022-10-04T11:33:17.487Z,2.33
2022-10-04T11:36:10.603Z,2.78
2022-10-04T11:39:03.218Z,2.05
2022-10-04T11:41:42.052Z,1.80
2022-10-04T11:44:31.574Z,2.60
2022-10-04T11:47:00.901Z,2.08
2022-10-04T11:49:38.021Z,2.10
2022-10-04T11:52:47.133Z,1.58
2022-10-04T11:55:32.217Z,1.98
2022-10-04T11:58:15.874Z,1.95
2022-10-04T12:01:05.065Z,1.48
2022-10-04T12:04:09.633Z,1.48
2022-10-04T12:07:06.941Z,2.40
2022-10-04T12:09:50.745Z,1.65
2022-10-04T12:12:43.960Z,2.08
2022-10-04T12:15:20.318Z,1.88
2022-10-04T12:18:26.474Z,1.30
2022-10-04T12:21:12.530Z,2.00
2022-10-04T12:24:07.434Z,1.63
2022-10-04T12:26:59.744Z,1.70
2022-10-04T12:30:06.076Z,1.48
2022-10-04T12:33:06.254Z,2.00
2022-10-04T12:35:48.651Z,1.60
2022-10-04T12:38:43.288Z,1.70
2022-10-04T12:41:37.588Z,1.20
2022-10-04T12:44:14.897Z,1.42
2022-10-04T12:46:54.167Z,1.33
2022-10-04T12:50:04.866Z,1.45
2022-10-04T12:52:42.025Z,1.50
2022-10-04T12:55:46.376Z,1.05
2022-10-04T12:58:21.635Z,1.35
2022-10-04T13:00:48.576Z,0.98
2022-10-04T13:03:34.295Z,1.00
2022-10-04T13:06:12.652Z,1.30
2022-10-04T13:08:47.014Z,1.60
2022-10-04T13:11:23.182Z,1.00
2022-10-04T13:14:08.634Z,1.98
2022-10-04T13:20:19.610Z,1.17
2022-10-04T13:23:08.028Z,1.42
2022-10-04T13:26:28.844Z,1.00
2022-10-04T13:29:12.761Z,1.33
2022-10-04T13:31:49.851Z,1.30
2022-10-04T13:34:26.448Z,1.45
2022-10-04T13:37:12.295Z,1.30
2022-10-04T13:42:52.083Z,0.95
2022-10-04T13:45:27.699Z,1.50
2022-10-04T13:48:00.787Z,1.23
2022-10-04T13:57:27.017Z,1.25
2022-10-04T14:00:02.005Z,1.63
2022-10-04T14:02:38.148Z,1.45
2022-10-04T14:05:20.041Z,1.10
2022-10-04T14:08:21.579Z,1.75
2022-10-04T14:11:01.637Z,1.85
2022-10-04T14:13:51.287Z,1.75
2022-10-04T14:16:37.262Z,2.58
2022-10-04T14:19:22.680Z,3.10
2022-10-04T14:24:35.527Z,2.80
2022-10-04T14:27:39.893Z,3.20
2022-10-04T14:30:24.578Z,2.38
2022-10-04T14:33:15.305Z,3.15
2022-10-04T14:35:53.365Z,3.00
2022-10-04T14:38:32.239Z,2.92
2022-10-04T14:40:58.990Z,2.35
2022-10-04T14:43:59.516Z,2.15
2022-10-04T14:46:53.455Z,2.40
2022-10-04T14:49:30.773Z,2.00
2022-10-04T14:52:31.038Z,1.98
2022-10-04T14:55:26.439Z,1.88
2022-10-04T14:58:44.441Z,2.35
2022-10-04T15:01:38.301Z,2.20
2022-10-04T15:04:13.989Z,2.40
2022-10-04T15:06:49.543Z,1.90
2022-10-04T15:12:45.908Z,2.72
2022-10-04T15:15:36.972Z,1.90
2022-10-04T15:18:11.259Z,2.20
2022-10-04T15:20:47.653Z,1.85
2022-10-04T15:23:32.061Z,1.63
2022-10-04T15:26:19.115Z,2.65
2022-10-04T15:28:54.776Z,1.90
2022-10-04T15:31:27.087Z,2.47
2022-10-04T15:34:26.714Z,2.25
2022-10-04T15:37:12.103Z,2.10
2022-10-04T15:44:56.782Z,2.25
2022-10-04T15:47:33.445Z,2.20
2022-10-04T15:50:12.418Z,2.28
2022-10-04T15:52:58.072Z,2.17
2022-10-04T15:55:31.676Z,1.90
2022-10-04T15:58:16.348Z,2.53
2022-10-04T16:01:01.652Z,1.98
2022-10-04T16:03:34.436Z,2.00
2022-10-04T16:06:23.280Z,2.38
2022-10-04T16:09:16.412Z,2.33
2022-10-04T16:11:52.596Z,2.40
2022-10-04T16:14:38.009Z,2.10
2022-10-04T16:17:11.580Z,2.25
2022-10-04T16:19:41.439Z,2.38
2022-10-04T16:22:15.118Z,2.05
2022-10-04T16:24:51.735Z,2.97
2022-10-04T16:27:58.752Z,2.53
2022-10-04T16:30:44.264Z,2.40
2022-10-04T16:33:21.325Z,2.70
2022-10-04T16:36:25.671Z,2.47
2022-10-04T16:39:13.498Z,2.75
2022-10-04T16:42:09.925Z,3.17
2022-10-04T16:44:53.668Z,3.10
2022-10-04T16:47:39.563Z,3.60
2022-10-04T16:50:10.943Z,4.20
2022-10-04T16:52:50.306Z,5.43
2022-10-04T16:55:39.071Z,6.03
2022-10-04T16:58:27.794Z,6.60
2022-10-04T17:01:22.988Z,7.78
2022-10-04T17:04:27.577Z,9.05
2022-10-04T17:06:59.489Z,10.48
2022-10-04T17:09:33.057Z,10.63
2022-10-04T17:12:24.372Z,11.45
2022-10-04T17:15:00.676Z,12.75
2022-10-04T17:17:50.210Z,13.50
2022-10-04T17:20:20.638Z,13.20
2022-10-04T17:23:35.776Z,13.40
2022-10-04T17:26:36.186Z,14.30
2022-10-04T17:29:21.968Z,14.52
2022-10-04T17:32:03.730Z,15.20
2022-10-04T17:34:57.454Z,15.10
2022-10-04T17:37:33.339Z,18.13
2022-10-04T17:40:08.781Z,17.77
2022-10-04T17:42:40.790Z,16.75
2022-10-04T17:45:41.446Z,17.90
2022-10-04T17:48:29.331Z,18.23
2022-10-04T17:51:30.310Z,19.50
2022-10-04T17:54:27.385Z,20.10
2022-10-04T17:57:03.663Z,19.55
2022-10-04T17:59:46.187Z,20.77
2022-10-04T18:02:20.180Z,21.63
2022-10-04T18:04:58.887Z,21.98
2022-10-04T18:07:26.182Z,23.83
2022-10-04T18:09:55.131Z,26.10
2022-10-04T18:12:25.096Z,26.55
2022-10-04T18:15:00.048Z,27.17
2022-10-04T18:17:29.491Z,27.00
2022-10-04T18:20:01.585Z,28.63
2022-10-04T18:22:30.052Z,28.90
2022-10-04T18:25:23.995Z,30.33
2022-10-04T18:28:00.297Z,32.47
2022-10-04T18:30:27.372Z,32.40
2022-10-04T18:32:55.745Z,30.20
2022-10-04T18:35:30.281Z,33.03
2022-10-04T18:38:04.296Z,33.75
2022-10-04T18:40:57.328Z,33.45
2022-10-04T18:43:32.391Z,34.22
2022-10-04T18:46:25.489Z,33.35
2022-10-04T18:49:04.188Z,34.85
2022-10-04T18:52:13.313Z,33.53
2022-10-04T18:54:53.701Z,33.30
2022-10-04T18:57:24.405Z,35.10
2022-10-04T19:00:30.007Z,33.38
2022-10-04T19:03:15.307Z,35.28
2022-10-04T19:05:51.392Z,33.63
2022-10-04T19:08:36.882Z,34.53
2022-10-04T19:13:45.992Z,31.63
2022-10-04T19:16:16.641Z,32.03
2022-10-04T19:18:50.074Z,34.28
2022-10-04T19:21:44.000Z,32.63
2022-10-04T19:24:59.287Z,32.10
2022-10-04T19:27:38.724Z,32.53
2022-10-04T19:30:14.780Z,33.00
2022-10-04T19:32:48.961Z,32.25
2022-10-04T19:35:24.909Z,33.20
2022-10-04T19:37:51.944Z,33.90
2022-10-04T19:40:40.572Z,31.40
2022-10-04T19:43:10.065Z,33.63
2022-10-04T19:45:43.146Z,33.95
2022-10-04T19:48:33.800Z,31.92
2022-10-04T19:51:04.408Z,31.25
2022-10-04T19:53:42.549Z,32.65
2022-10-04T19:56:16.509Z,32.08
2022-10-04T19:58:45.236Z,32.45
2022-10-04T20:01:16.644Z,30.90
2022-10-04T20:03:43.976Z,30.38
2022-10-04T20:06:11.090Z,30.92
2022-10-04T20:08:44.875Z,29.45
2022-10-04T20:11:16.975Z,31.02
2022-10-04T20:13:43.756Z,31.25
2022-10-04T20:16:10.966Z,32.00
2022-10-04T20:18:51.307Z,29.95
2022-10-04T20:21:26.569Z,28.70
2022-10-04T20:23:56.664Z,32.78
2022-10-04T20:26:54.043Z,28.85
2022-10-04T20:29:36.676Z,29.20
2022-10-04T20:32:10.806Z,29.17
2022-10-04T20:34:37.608Z,29.15
2022-10-04T20:37:08.683Z,29.42
2022-10-04T20:39:43.900Z,29.83
2022-10-04T20:42:22.678Z,29.42
2022-10-04T20:45:06.309Z,27.58
2022-10-04T20:47:43.211Z,28.02
2022-10-04T20:50:10.008Z,27.83
2022-10-04T20:52:37.336Z,26.95
2022-10-04T20:55:28.628Z,28.30
2022-10-04T20:57:56.710Z,29.02
2022-10-04T21:00:25.621Z,28.73
2022-10-04T21:03:16.602Z,28.42
2022-10-04T21:05:44.717Z,26.88
2022-10-04T21:08:19.764Z,26.70
2022-10-04T21:13:56.367Z,25.77
2022-10-04T21:16:35.952Z,29.23
2022-10-04T21:19:33.970Z,28.02
2022-10-04T21:22:30.499Z,29.52
2022-10-04T21:24:58.619Z,26.50
2022-10-04T21:27:28.683Z,27.67
2022-10-04T21:29:56.526Z,27.60
2022-10-04T21:32:23.810Z,28.60
2022-10-04T21:34:53.809Z,26.05
2022-10-04T21:37:21.158Z,27.08
2022-10-04T21:39:48.058Z,28.27
2022-10-04T21:42:15.148Z,26.50
2022-10-04T21:44:42.005Z,26.15
2022-10-04T21:47:09.007Z,27.00
2022-10-04T21:49:36.144Z,25.33
2022-10-04T21:52:03.186Z,25.10
2022-10-04T21:54:29.969Z,27.35
2022-10-04T21:56:56.984Z,24.77
2022-10-04T21:59:24.172Z,24.42
2022-10-04T22:01:51.097Z,23.45
2022-10-04T22:04:18.151Z,25.88
2022-10-04T22:06:45.153Z,24.95
2022-10-04T22:09:12.199Z,25.95
2022-10-04T22:11:39.246Z,25.50
2022-10-04T22:14:06.083Z,24.30
2022-10-04T22:19:17.328Z,23.70
2022-10-04T22:21:44.383Z,24.77
2022-10-04T22:24:16.513Z,23.65
2022-10-04T22:26:43.873Z,23.88
2022-10-04T22:29:15.074Z,23.90
2022-10-04T22:31:48.947Z,25.15
2022-10-04T22:34:16.996Z,24.63
2022-10-04T22:36:44.177Z,23.98
2022-10-04T22:39:14.319Z,24.80
2022-10-04T22:41:46.419Z,23.83
2022-10-04T22:44:17.008Z,23.98
2022-10-04T22:46:46.077Z,23.27
2022-10-04T22:49:15.127Z,24.17
2022-10-04T22:51:43.179Z,22.38
2022-10-04T22:54:15.830Z,23.58
2022-10-04T22:56:42.780Z,23.77
2022-10-04T22:59:11.021Z,24.38
2022-10-04T23:01:38.161Z,24.58
2022-10-04T23:04:23.487Z,24.95
2022-10-04T23:06:50.764Z,23.30
2022-10-04T23:09:17.903Z,22.75
2022-10-04T23:11:44.760Z,23.48
2022-10-04T23:14:11.872Z,21.80
2022-10-04T23:16:43.075Z,22.27
2022-10-04T23:19:15.159Z,21.35
2022-10-04T23:21:44.289Z,22.35
2022-10-04T23:24:17.986Z,20.98
2022-10-04T23:26:47.049Z,20.58
2022-10-04T23:29:14.093Z,20.38
2022-10-04T23:31:40.928Z,21.42
2022-10-04T23:34:17.506Z,21.58
2022-10-04T23:36:45.307Z,21.27
2022-10-04T23:39:14.108Z,21.92
2022-10-04T23:41:41.727Z,21.90
2022-10-04T23:44:12.951Z,21.65
2022-10-04T23:46:40.065Z,21.98
2022-10-04T23:49:13.180Z,22.70
2022-10-04T23:51:39.942Z,20.77
2022-10-04T23:54:14.289Z,21.98
2022-10-04T23:56:41.379Z,21.02
2022-10-04T23:59:16.170Z,20.50
